Time;durP1;ratioP1;P1;durP2;ratioP2;P2;SDS_P1;SDS_P2;PMS_P1;PMS_P2;Temp;Humidity;BMP_temperature;BMP_pressure;BME280_temperature;BME280_humidity;BME280_pressure;Samples;Min_cycle;Max_cycle;Signal;HPM_P1;HPM_P2
2024/01/13 00:01:16;;;;;;;19.10;18.17;;;;;;;2.98;100.00;102203.06;5043825;28;20848;-43
2024/01/13 00:03:44;;;;;;;19.23;18.33;;;;;;;2.98;100.00;102195.16;5048690;28;20972;-41
2024/01/13 00:06:12;;;;;;;19.90;18.60;;;;;;;2.95;100.00;102184.81;5046987;28;20563;-42
2024/01/13 00:08:42;;;;;;;20.20;18.90;;;;;;;2.96;100.00;102173.31;5048547;28;20459;-43
2024/01/13 00:11:10;;;;;;;19.73;18.47;;;;;;;2.96;100.00;102177.75;5052898;28;20783;-42
2024/01/13 00:13:38;;;;;;;19.40;18.37;;;;;;;2.97;100.00;102176.78;5052920;28;20474;-42
2024/01/13 00:16:06;;;;;;;19.20;18.10;;;;;;;2.95;100.00;102165.53;5043787;28;20483;-41
2024/01/13 00:18:35;;;;;;;19.63;18.27;;;;;;;2.93;100.00;102163.00;5043981;28;20546;-43
2024/01/13 00:21:08;;;;;;;18.67;17.87;;;;;;;2.93;100.00;102173.53;5052658;28;20435;-45
2024/01/13 00:23:37;;;;;;;19.13;17.90;;;;;;;2.95;100.00;102162.91;5053618;28;20442;-42
2024/01/13 00:26:05;;;;;;;18.97;17.83;;;;;;;2.95;100.00;102163.75;5053311;28;20462;-43
2024/01/13 00:28:33;;;;;;;19.20;17.87;;;;;;;2.95;100.00;102158.47;5052694;28;20459;-43
2024/01/13 00:31:04;;;;;;;19.57;18.40;;;;;;;2.96;100.00;102154.88;5052934;28;20443;-46
2024/01/13 00:33:32;;;;;;;20.73;18.53;;;;;;;2.98;100.00;102149.50;5053122;28;20478;-43
2024/01/13 00:36:02;;;;;;;19.27;17.97;;;;;;;3.01;100.00;102152.75;5050975;28;20451;-43
2024/01/13 00:38:30;;;;;;;18.30;17.60;;;;;;;3.03;100.00;102134.19;5046701;28;20930;-42
2024/01/13 00:41:04;;;;;;;18.60;17.70;;;;;;;3.04;100.00;102130.59;5044685;28;20462;-42
2024/01/13 00:43:34;;;;;;;19.00;18.20;;;;;;;3.07;100.00;102114.56;5053598;28;20471;-43
2024/01/13 00:46:02;;;;;;;19.17;18.00;;;;;;;3.07;100.00;102117.19;5053183;28;20893;-43
2024/01/13 00:48:30;;;;;;;19.43;18.23;;;;;;;3.08;100.00;102111.78;5052797;28;20467;-42
2024/01/13 00:51:10;;;;;;;19.23;18.20;;;;;;;3.11;100.00;102121.25;5052642;28;20620;-44
2024/01/13 00:53:39;;;;;;;18.63;17.53;;;;;;;3.10;100.00;102123.09;5047060;28;20507;-41
2024/01/13 00:56:07;;;;;;;19.43;17.97;;;;;;;3.09;100.00;102124.03;5052500;28;20897;-43
2024/01/13 00:58:36;;;;;;;17.77;16.90;;;;;;;3.08;100.00;102122.34;5053281;28;20455;-44
2024/01/13 01:01:11;;;;;;;19.17;18.03;;;;;;;3.09;100.00;102110.00;5052264;28;20437;-41
2024/01/13 01:03:41;;;;;;;20.03;18.70;;;;;;;3.06;100.00;102112.88;5052482;28;20542;-42
2024/01/13 01:06:10;;;;;;;18.47;17.67;;;;;;;3.06;100.00;102103.19;5052169;28;20558;-41
2024/01/13 01:08:38;;;;;;;19.00;17.97;;;;;;;3.05;100.00;102109.38;5052138;28;20466;-46
2024/01/13 01:11:07;;;;;;;19.27;17.93;;;;;;;3.02;100.00;102093.81;5051920;28;20435;-43
2024/01/13 01:13:36;;;;;;;18.57;17.77;;;;;;;3.03;100.00;102094.66;5052341;28;20479;-41
2024/01/13 01:16:04;;;;;;;19.00;17.73;;;;;;;3.02;100.00;102085.91;5051957;28;20981;-41
2024/01/13 01:18:33;;;;;;;19.20;17.70;;;;;;;3.06;100.00;102083.88;5051321;28;20455;-41
2024/01/13 01:21:14;;;;;;;20.20;18.30;;;;;;;3.07;100.00;102069.75;5052139;28;20435;-42
2024/01/13 01:23:45;;;;;;;18.90;17.73;;;;;;;3.08;100.00;102063.50;5044535;28;20438;-41
2024/01/13 01:26:13;;;;;;;19.67;18.20;;;;;;;3.07;100.00;102060.06;5051611;28;20462;-41
2024/01/13 01:28:41;;;;;;;19.17;17.70;;;;;;;3.07;100.00;102065.34;5052061;28;20459;-41
2024/01/13 01:31:08;;;;;;;19.97;18.60;;;;;;;3.01;100.00;102057.88;5051727;28;20881;-42
2024/01/13 01:33:37;;;;;;;19.40;18.10;;;;;;;3.05;100.00;102054.03;5051900;28;20471;-41
2024/01/13 01:36:07;;;;;;;19.20;18.30;;;;;;;3.04;100.00;102051.53;5043541;28;20457;-41
2024/01/13 01:38:36;;;;;;;19.73;17.87;;;;;;;3.01;100.00;102054.41;5051248;28;20978;-42
2024/01/13 01:41:12;;;;;;;19.30;18.13;;;;;;;3.00;100.00;102043.03;5043345;28;20793;-41
2024/01/13 01:43:40;;;;;;;19.10;17.80;;;;;;;2.97;100.00;102042.41;5051747;28;20871;-44
2024/01/13 01:46:08;;;;;;;18.97;17.87;;;;;;;2.96;100.00;102038.09;5043133;28;20974;-41
2024/01/13 01:48:38;;;;;;;18.93;17.53;;;;;;;2.96;100.00;102038.09;5051241;28;20455;-41
2024/01/13 01:51:11;;;;;;;18.07;17.30;;;;;;;2.90;100.00;102034.13;5043940;28;20438;-40
2024/01/13 01:53:42;;;;;;;18.83;17.90;;;;;;;2.90;100.00;102028.03;5046210;28;20471;-43
2024/01/13 01:56:13;;;;;;;18.00;17.10;;;;;;;2.90;100.00;102035.94;5051387;28;20551;-42
2024/01/13 01:58:42;;;;;;;18.30;17.33;;;;;;;2.91;100.00;102022.63;5051214;28;20455;-41
2024/01/13 02:01:12;;;;;;;18.80;17.80;;;;;;;2.93;100.00;102035.72;5051343;28;20930;-41
2024/01/13 02:03:40;;;;;;;19.30;17.93;;;;;;;2.94;100.00;102025.03;5051671;28;20431;-43
2024/01/13 02:06:09;;;;;;;18.37;17.40;;;;;;;2.96;100.00;102015.22;5051095;28;21005;-41
2024/01/13 02:08:37;;;;;;;18.97;18.17;;;;;;;2.98;100.00;101999.31;5045023;28;20456;-40
2024/01/13 02:11:11;;;;;;;19.10;18.10;;;;;;;3.01;100.00;101991.16;5049770;28;20496;-45
2024/01/13 02:13:44;;;;;;;18.47;17.57;;;;;;;2.96;100.00;101988.03;5051745;28;20824;-41
2024/01/13 02:16:12;;;;;;;18.90;17.80;;;;;;;2.97;100.00;101984.44;5040348;28;21077;-41
2024/01/13 02:18:40;;;;;;;18.97;17.87;;;;;;;2.98;100.00;101970.31;5045612;28;21000;-41
2024/01/13 02:21:10;;;;;;;19.03;17.83;;;;;;;2.99;100.00;101964.06;5050908;28;20447;-41
2024/01/13 02:23:41;;;;;;;19.33;18.30;;;;;;;3.01;100.00;101960.38;5051517;28;20435;-42
2024/01/13 02:26:09;;;;;;;19.20;18.03;;;;;;;3.02;100.00;101955.94;5051051;28;20873;-41
2024/01/13 02:28:38;;;;;;;19.23;18.13;;;;;;;3.03;100.00;101955.81;5050880;28;20455;-41
2024/01/13 02:31:15;;;;;;;18.60;17.50;;;;;;;3.01;100.00;101955.13;5056334;28;20435;-41
2024/01/13 02:33:47;;;;;;;19.27;18.00;;;;;;;3.04;100.00;101956.66;5048383;28;20478;-41
2024/01/13 02:36:15;;;;;;;19.57;18.40;;;;;;;3.04;100.00;101957.50;5048095;28;20480;-41
2024/01/13 02:38:45;;;;;;;19.50;18.43;;;;;;;3.03;100.00;101960.25;5048491;28;20900;-43
2024/01/13 02:41:13;;;;;;;19.33;17.93;;;;;;;3.00;100.00;101960.50;5053899;28;20452;-42
2024/01/13 02:43:40;;;;;;;18.70;17.60;;;;;;;2.96;100.00;101962.50;5055374;28;20427;-43
2024/01/13 02:46:08;;;;;;;17.80;16.90;;;;;;;2.97;100.00;101961.56;5054870;28;20490;-43
2024/01/13 02:48:39;;;;;;;18.17;16.97;;;;;;;2.98;100.00;101962.41;5054724;28;20463;-41
2024/01/13 02:51:13;;;;;;;17.73;17.03;;;;;;;2.96;100.00;101953.75;5054899;28;20534;-41
2024/01/13 02:53:41;;;;;;;18.47;17.37;;;;;;;2.93;100.00;101959.31;5050360;28;20569;-41
2024/01/13 02:56:11;;;;;;;18.13;17.13;;;;;;;2.92;100.00;101954.97;5054556;28;20451;-41
2024/01/13 02:58:38;;;;;;;18.20;16.90;;;;;;;2.95;100.00;101954.75;5054467;28;20467;-41
2024/01/13 03:01:13;;;;;;;18.17;17.17;;;;;;;2.91;100.00;101948.88;5054417;28;20535;-42
2024/01/13 03:03:41;;;;;;;21.90;20.23;;;;;;;2.86;100.00;101942.28;5054576;28;20437;-42
2024/01/13 03:06:10;;;;;;;17.93;17.03;;;;;;;2.85;100.00;101943.22;5071460;23;20486;-36
2024/01/13 03:08:38;;;;;;;18.47;17.27;;;;;;;2.79;100.00;101939.25;5055684;28;20463;-36
2024/01/13 03:11:11;;;;;;;18.27;17.10;;;;;;;2.81;100.00;101934.72;5055521;28;20446;-36
2024/01/13 03:13:42;;;;;;;19.40;18.07;;;;;;;2.81;100.00;101929.44;5056235;28;20475;-36
2024/01/13 03:16:10;;;;;;;19.97;18.57;;;;;;;2.77;100.00;101918.31;5046734;28;20495;-37
2024/01/13 03:18:38;;;;;;;20.03;18.83;;;;;;;2.83;100.00;101916.16;5055432;28;21012;-36
2024/01/13 03:21:10;;;;;;;20.03;18.80;;;;;;;2.84;100.00;101909.94;5046579;28;20440;-37
2024/01/13 03:23:41;;;;;;;19.00;17.83;;;;;;;2.86;100.00;101910.66;5055100;28;20439;-36
2024/01/13 03:26:11;;;;;;;19.33;18.13;;;;;;;2.87;100.00;101910.53;5053577;28;20809;-36
2024/01/13 03:28:39;;;;;;;19.53;18.33;;;;;;;2.88;100.00;101903.47;5048910;28;20545;-36
2024/01/13 03:31:10;;;;;;;19.80;18.57;;;;;;;2.88;100.00;101900.84;5045070;28;20802;-37
2024/01/13 03:33:41;;;;;;;20.33;18.87;;;;;;;2.88;100.00;101900.84;5049261;28;20573;-36
2024/01/13 03:36:10;;;;;;;19.80;18.40;;;;;;;2.84;100.00;101905.50;5055025;28;21035;-36
2024/01/13 03:38:38;;;;;;;18.97;17.87;;;;;;;2.85;100.00;101895.81;5054816;28;20463;-36
2024/01/13 03:41:15;;;;;;;18.53;17.50;;;;;;;2.86;100.00;101889.59;5055051;28;20439;-36
2024/01/13 03:43:44;;;;;;;18.47;17.27;;;;;;;2.86;100.00;101889.59;5055823;28;20474;-37
2024/01/13 03:46:12;;;;;;;18.77;17.43;;;;;;;2.86;100.00;101881.69;5054945;28;20841;-38
2024/01/13 03:48:40;;;;;;;19.00;17.93;;;;;;;2.86;100.00;101872.00;5054777;28;20466;-36
2024/01/13 03:51:08;;;;;;;20.67;19.10;;;;;;;2.87;100.00;101864.94;5055661;28;20503;-36
2024/01/13 03:53:36;;;;;;;21.70;19.80;;;;;;;2.86;100.00;101861.44;5054971;28;21024;-37
2024/01/13 03:56:05;;;;;;;20.80;19.33;;;;;;;2.87;100.00;101863.09;5045352;28;20456;-37
2024/01/13 03:58:35;;;;;;;20.33;18.80;;;;;;;2.89;100.00;101861.22;5054099;28;20455;-36
2024/01/13 04:01:04;;;;;;;20.67;18.50;;;;;;;2.90;100.00;101859.41;5054318;28;20443;-36
2024/01/13 04:03:32;;;;;;;21.03;19.20;;;;;;;2.88;100.00;101859.53;5046963;28;21214;-36
2024/01/13 04:06:02;;;;;;;22.13;20.03;;;;;;;2.89;100.00;101860.38;5054710;28;20978;-37
2024/01/13 04:08:32;;;;;;;20.33;18.70;;;;;;;2.91;100.00;101847.91;5053533;28;20455;-36
2024/01/13 04:11:00;;;;;;;20.20;18.80;;;;;;;2.90;100.00;101843.63;5053586;28;20440;-36
2024/01/13 04:13:27;;;;;;;21.87;20.03;;;;;;;2.92;100.00;101852.22;5046112;28;20969;-36
2024/01/13 04:15:57;;;;;;;22.03;20.23;;;;;;;2.89;100.00;101842.78;5053571;28;20968;-36
2024/01/13 04:18:24;;;;;;;21.70;19.70;;;;;;;2.89;100.00;101839.28;5041059;28;20464;-36
2024/01/13 04:20:53;;;;;;;22.53;19.70;;;;;;;2.88;100.00;101835.81;5048724;28;20493;-37
2024/01/13 04:23:35;;;;;;;28.87;20.70;;;;;;;2.85;100.00;101836.06;5054172;28;20439;-36
2024/01/13 04:26:03;;;;;;;21.53;19.37;;;;;;;2.81;100.00;101821.44;5054184;28;20469;-36
2024/01/13 04:28:31;;;;;;;20.67;18.90;;;;;;;2.74;100.00;101829.00;5049312;28;20494;-37
2024/01/13 04:31:00;;;;;;;19.00;18.00;;;;;;;2.64;100.00;101822.75;5041681;28;20850;-38
2024/01/13 04:33:28;;;;;;;20.33;18.90;;;;;;;2.70;100.00;101813.53;5054219;28;20545;-36
2024/01/13 04:35:55;;;;;;;19.80;18.60;;;;;;;2.72;100.00;101801.09;5038067;28;20887;-36
2024/01/13 04:38:26;;;;;;;19.90;18.60;;;;;;;2.72;100.00;101799.28;5045077;28;20455;-36
2024/01/13 04:40:54;;;;;;;20.93;19.47;;;;;;;2.73;100.00;101811.50;5046903;28;20519;-36
2024/01/13 04:43:21;;;;;;;21.40;19.73;;;;;;;2.71;100.00;101799.44;5053180;28;20911;-36
2024/01/13 04:45:49;;;;;;;28.53;20.60;;;;;;;2.70;100.00;101782.78;5054496;28;20463;-38
2024/01/13 04:48:19;;;;;;;22.03;20.50;;;;;;;2.68;100.00;101789.97;5054134;28;20490;-37
2024/01/13 04:50:46;;;;;;;21.47;19.83;;;;;;;2.68;100.00;101784.72;5053931;28;20964;-36
2024/01/13 04:53:14;;;;;;;21.73;20.13;;;;;;;2.70;100.00;101782.78;5052876;28;20462;-38
2024/01/13 04:55:42;;;;;;;22.23;20.57;;;;;;;2.68;100.00;101779.44;5049582;28;21059;-36
2024/01/13 04:58:10;;;;;;;22.27;20.20;;;;;;;2.68;100.00;101774.19;5053510;28;20463;-36
2024/01/13 05:00:37;;;;;;;21.37;20.03;;;;;;;2.71;100.00;101778.34;5048569;28;20923;-39
2024/01/13 05:03:05;;;;;;;20.37;19.17;;;;;;;2.69;100.00;101775.00;5042597;28;21035;-36
2024/01/13 05:05:34;;;;;;;21.33;19.83;;;;;;;2.67;100.00;101777.75;5054361;28;20462;-36
2024/01/13 05:08:02;;;;;;;20.20;18.67;;;;;;;2.65;100.00;101769.16;5053072;28;20494;-36
2024/01/13 05:10:30;;;;;;;19.80;18.67;;;;;;;2.64;100.00;101763.97;5045253;28;20443;-38
2024/01/13 05:12:57;;;;;;;21.80;19.67;;;;;;;2.62;100.00;101768.53;5045848;28;20442;-37
2024/01/13 05:15:25;;;;;;;21.50;19.33;;;;;;;2.65;100.00;101760.41;5049850;28;20479;-36
2024/01/13 05:17:53;;;;;;;21.20;19.83;;;;;;;2.62;100.00;101748.31;5047747;28;20467;-37
2024/01/13 05:20:21;;;;;;;21.57;20.00;;;;;;;2.61;100.00;101744.00;5050298;28;20498;-36
2024/01/13 05:22:51;;;;;;;19.50;18.20;;;;;;;2.60;100.00;101733.56;5047464;28;20467;-36
2024/01/13 05:25:20;;;;;;;21.73;20.03;;;;;;;2.57;100.00;101718.84;5044743;28;20551;-36
2024/01/13 05:27:47;;;;;;;20.53;19.10;;;;;;;2.60;100.00;101721.25;5052359;28;20485;-38
2024/01/13 05:30:15;;;;;;;20.57;19.20;;;;;;;2.61;100.00;101706.28;5051322;28;20522;-36
2024/01/13 05:32:43;;;;;;;21.17;20.07;;;;;;;2.58;100.00;101699.47;5041902;28;20443;-36
2024/01/13 05:35:11;;;;;;;21.50;19.73;;;;;;;2.54;100.00;101697.22;5050117;28;20850;-36
2024/01/13 05:37:39;;;;;;;21.10;19.70;;;;;;;2.55;100.00;101690.97;5037888;28;20523;-36
2024/01/13 05:40:10;;;;;;;23.07;21.20;;;;;;;2.53;100.00;101695.53;5037487;28;20436;-35
2024/01/13 05:42:38;;;;;;;21.77;20.10;;;;;;;2.58;100.00;101701.28;5047270;28;20467;-37
2024/01/13 05:45:07;;;;;;;21.63;20.13;;;;;;;2.61;100.00;101693.97;5050290;28;20728;-38
2024/01/13 05:47:35;;;;;;;21.77;20.47;;;;;;;2.66;100.00;101693.59;5050289;28;20930;-36
2024/01/13 05:50:03;;;;;;;22.13;20.13;;;;;;;2.67;100.00;101684.75;5042280;28;20447;-36
2024/01/13 05:52:32;;;;;;;21.00;19.57;;;;;;;2.67;100.00;101671.56;5042070;28;20432;-36
2024/01/13 05:55:00;;;;;;;21.17;19.27;;;;;;;2.68;100.00;101660.09;5044392;28;20560;-36
2024/01/13 05:57:29;;;;;;;19.20;17.97;;;;;;;2.70;100.00;101659.00;5049028;28;20432;-36
2024/01/13 05:59:56;;;;;;;18.50;17.33;;;;;;;2.71;100.00;101657.22;5027011;28;20454;-36
2024/01/13 06:02:24;;;;;;;19.57;17.80;;;;;;;2.71;100.00;101668.59;5031419;28;20444;-35
2024/01/13 06:04:52;;;;;;;21.07;19.50;;;;;;;2.72;100.00;101653.59;5034098;28;20458;-37
2024/01/13 06:07:19;;;;;;;23.63;21.87;;;;;;;2.73;100.00;101645.59;5045719;28;20511;-36
2024/01/13 06:10:00;;;;;;;20.10;18.70;;;;;;;2.76;100.00;101649.75;5040758;28;20455;-36
2024/01/13 06:12:29;;;;;;;20.40;18.70;;;;;;;2.79;100.00;101633.72;5047787;28;20439;-36
2024/01/13 06:14:57;;;;;;;20.40;19.00;;;;;;;2.79;100.00;101649.50;5048382;28;21075;-37
2024/01/13 06:17:24;;;;;;;19.83;18.43;;;;;;;2.81;100.00;101642.31;5046629;28;20463;-36
2024/01/13 06:19:52;;;;;;;20.17;18.87;;;;;;;2.82;100.00;101633.47;5034936;28;20463;-39
2024/01/13 06:22:20;;;;;;;20.93;19.23;;;;;;;2.84;100.00;101617.56;5039495;28;20424;-35
2024/01/13 06:24:48;;;;;;;18.53;17.33;;;;;;;2.85;100.00;101612.13;5036020;28;20491;-35
2024/01/13 06:27:15;;;;;;;19.50;17.70;;;;;;;2.86;100.00;101608.56;5035530;28;20519;-36
2024/01/13 06:29:44;;;;;;;19.00;17.57;;;;;;;2.91;100.00;101602.88;5042953;28;20459;-38
2024/01/13 06:32:12;;;;;;;20.53;19.00;;;;;;;2.93;100.00;101601.00;5048189;28;20431;-36
2024/01/13 06:34:40;;;;;;;20.17;18.23;;;;;;;2.92;100.00;101586.97;5045305;28;20921;-36
2024/01/13 06:37:08;;;;;;;21.93;19.60;;;;;;;2.95;100.00;101580.63;5048670;28;20486;-36
2024/01/13 06:39:36;;;;;;;21.57;20.47;;;;;;;3.01;100.00;101588.84;5048778;28;20456;-36
2024/01/13 06:42:06;;;;;;;23.50;21.00;;;;;;;3.02;100.00;101587.88;5049120;28;20804;-37
2024/01/13 06:44:34;;;;;;;21.00;19.70;;;;;;;3.04;100.00;101583.31;5046712;28;20812;-36
2024/01/13 06:47:11;;;;;;;23.20;21.20;;;;;;;3.07;100.00;101585.69;5047010;28;20427;-36
2024/01/13 06:49:39;;;;;;;22.83;21.13;;;;;;;3.09;100.00;101578.50;5045528;28;20483;-35
2024/01/13 06:52:09;;;;;;;21.77;20.37;;;;;;;3.10;100.00;101580.19;5037966;28;21000;-35
2024/01/13 06:54:37;;;;;;;20.93;19.57;;;;;;;3.13;100.00;101571.19;5052040;28;20514;-36
2024/01/13 06:57:05;;;;;;;20.57;19.20;;;;;;;3.15;100.00;101556.91;5048212;28;20842;-35
2024/01/13 06:59:34;;;;;;;22.37;20.80;;;;;;;3.19;100.00;101549.56;5043776;28;20463;-35
2024/01/13 07:02:01;;;;;;;21.50;20.03;;;;;;;3.20;100.00;101535.41;5045142;28;20976;-38
2024/01/13 07:04:32;;;;;;;22.13;20.30;;;;;;;3.23;100.00;101548.34;5051188;28;20436;-36
2024/01/13 07:07:00;;;;;;;22.80;20.70;;;;;;;3.24;100.00;101527.13;5048637;28;20458;-39
2024/01/13 07:09:28;;;;;;;21.60;19.90;;;;;;;3.23;100.00;101529.88;5046420;28;20455;-36
2024/01/13 07:11:56;;;;;;;21.93;19.87;;;;;;;3.27;100.00;101503.16;5044255;28;20510;-36
2024/01/13 07:14:23;;;;;;;22.17;20.20;;;;;;;3.27;100.00;101510.22;5047247;28;20946;-35
2024/01/13 07:16:51;;;;;;;22.53;20.13;;;;;;;3.31;100.00;101525.66;5039270;28;20491;-35
2024/01/13 07:19:19;;;;;;;21.07;19.70;;;;;;;3.31;100.00;101520.38;5052063;28;20467;-36
2024/01/13 07:21:48;;;;;;;21.70;19.83;;;;;;;3.35;100.00;101507.75;5044699;28;20481;-36
2024/01/13 07:24:16;;;;;;;21.60;19.87;;;;;;;3.34;100.00;101488.47;5051779;28;20465;-38
2024/01/13 07:26:44;;;;;;;21.20;19.60;;;;;;;3.37;100.00;101497.94;5052440;28;20473;-35
2024/01/13 07:29:12;;;;;;;22.33;20.50;;;;;;;3.36;100.00;101498.88;5052761;28;20482;-38
2024/01/13 07:31:41;;;;;;;21.97;19.90;;;;;;;3.37;100.00;101497.09;5050961;28;20462;-37
2024/01/13 07:34:09;;;;;;;22.00;19.80;;;;;;;3.36;100.00;101490.97;5054418;28;20934;-36
2024/01/13 07:36:38;;;;;;;22.27;20.60;;;;;;;3.35;100.00;101481.38;5033769;28;20596;-36
2024/01/13 07:39:09;;;;;;;21.13;19.90;;;;;;;3.32;100.00;101484.28;5049692;28;20917;-36
2024/01/13 07:41:38;;;;;;;21.60;19.90;;;;;;;3.32;100.00;101486.94;5044637;28;20432;-36
2024/01/13 07:44:06;;;;;;;21.97;20.00;;;;;;;3.34;100.00;101479.75;5043980;28;20454;-36
2024/01/13 07:46:41;;;;;;;21.03;19.40;;;;;;;3.34;100.00;101470.00;5047416;28;20447;-40
2024/01/13 07:49:10;;;;;;;19.73;18.40;;;;;;;3.35;100.00;101468.22;5053992;28;20547;-35
2024/01/13 07:51:38;;;;;;;20.93;19.40;;;;;;;3.33;100.00;101457.81;5047875;28;20462;-36
2024/01/13 07:54:07;;;;;;;21.93;19.83;;;;;;;3.33;100.00;101462.25;5046932;28;20492;-35
2024/01/13 07:56:36;;;;;;;20.27;18.73;;;;;;;3.33;100.00;101449.91;5054897;28;20506;-40
2024/01/13 07:59:04;;;;;;;21.50;19.37;;;;;;;3.34;100.00;101453.38;5053717;28;20464;-36
2024/01/13 08:01:32;;;;;;;20.77;18.93;;;;;;;3.33;100.00;101444.63;5053518;28;20435;-38
2024/01/13 08:04:06;;;;;;;21.07;19.23;;;;;;;3.32;100.00;101447.38;5054229;28;20439;-36
2024/01/13 08:06:35;;;;;;;21.13;19.43;;;;;;;3.33;100.00;101449.06;5053078;28;20985;-36
2024/01/13 08:09:03;;;;;;;20.73;18.70;;;;;;;3.34;100.00;101443.63;5057099;28;20526;-36
2024/01/13 08:11:33;;;;;;;22.37;20.13;;;;;;;3.34;100.00;101435.72;5056846;28;20435;-36
2024/01/13 08:14:08;;;;;;;19.67;18.20;;;;;;;3.37;100.00;101439.94;5056352;28;20492;-37
2024/01/13 08:16:35;;;;;;;20.13;18.40;;;;;;;3.37;100.00;101434.66;5047078;28;20900;-38
2024/01/13 08:19:03;;;;;;;20.90;19.00;;;;;;;3.40;100.00;101430.91;5057393;28;20572;-38
2024/01/13 08:21:31;;;;;;;22.50;20.17;;;;;;;3.44;100.00;101429.66;5050043;28;20445;-38
2024/01/13 08:24:08;;;;;;;21.10;19.50;;;;;;;3.45;100.00;101434.81;5048381;28;20449;-36
2024/01/13 08:26:38;;;;;;;20.30;18.90;;;;;;;3.48;100.00;101428.44;5051556;28;21022;-36
2024/01/13 08:29:06;;;;;;;22.27;19.13;;;;;;;3.47;100.00;101435.50;5051200;28;20487;-37
2024/01/13 08:31:34;;;;;;;21.67;20.00;;;;;;;3.46;100.00;101436.50;5052903;28;21105;-37
2024/01/13 08:34:08;;;;;;;21.77;19.50;;;;;;;3.45;100.00;101428.69;5047011;28;20437;-37
2024/01/13 08:36:36;;;;;;;21.83;19.70;;;;;;;3.50;100.00;101415.94;5043521;28;20972;-38
2024/01/13 08:39:04;;;;;;;23.13;20.80;;;;;;;3.49;100.00;101414.28;5049641;28;20889;-37
2024/01/13 08:41:32;;;;;;;25.27;22.23;;;;;;;3.51;100.00;101414.97;5049655;28;20519;-38
2024/01/13 08:44:03;;;;;;;21.47;19.53;;;;;;;3.50;100.00;101408.88;5049681;28;20447;-37
2024/01/13 08:46:31;;;;;;;23.70;20.70;;;;;;;3.53;100.00;101402.50;5047188;28;20451;-38
2024/01/13 08:48:59;;;;;;;21.83;19.83;;;;;;;3.54;100.00;101386.53;5043422;28;20529;-36
2024/01/13 08:51:28;;;;;;;27.20;21.00;;;;;;;3.55;100.00;101384.75;5049228;28;20442;-36
2024/01/13 08:54:03;;;;;;;21.67;19.80;;;;;;;3.57;100.00;101394.19;5047112;28;20434;-36
2024/01/13 08:56:34;;;;;;;24.10;19.90;;;;;;;3.59;100.00;101389.59;5038733;28;20481;-36
2024/01/13 08:59:04;;;;;;;20.83;18.73;;;;;;;3.63;100.00;101388.38;5047251;28;20546;-37
2024/01/13 09:01:32;;;;;;;22.60;19.73;;;;;;;3.64;100.00;101379.50;5036313;28;20432;-35
2024/01/13 09:04:06;;;;;;;22.03;19.50;;;;;;;3.66;100.00;101381.97;5035102;28;20435;-36
2024/01/13 09:06:34;;;;;;;21.47;19.00;;;;;;;3.70;100.00;101362.28;5043523;28;20461;-38
2024/01/13 09:09:02;;;;;;;22.00;19.80;;;;;;;3.71;100.00;101363.94;5066905;23;21160;-38
2024/01/13 09:11:30;;;;;;;22.33;20.00;;;;;;;3.77;100.00;101371.31;5031003;28;20448;-38
2024/01/13 09:14:11;;;;;;;20.93;19.57;;;;;;;3.74;100.00;101363.66;5029563;28;20432;-36
2024/01/13 09:16:41;;;;;;;24.83;20.03;;;;;;;3.82;100.00;101372.56;5029174;28;20525;-36
2024/01/13 09:19:09;;;;;;;22.03;20.33;;;;;;;3.86;100.00;101362.56;5028630;28;20610;-37
2024/01/13 09:21:38;;;;;;;20.80;19.53;;;;;;;3.88;100.00;101364.09;5013157;28;20444;-36
2024/01/13 09:24:12;;;;;;;20.60;19.10;;;;;;;3.90;100.00;101353.41;5014301;28;20448;-37
2024/01/13 09:26:41;;;;;;;20.43;18.70;;;;;;;3.91;100.00;101349.81;5009944;28;20453;-37
2024/01/13 09:29:13;;;;;;;20.33;18.63;;;;;;;3.89;100.00;101334.09;5017491;28;20804;-41
2024/01/13 09:31:41;;;;;;;20.33;19.10;;;;;;;3.97;100.00;101343.97;5010930;28;20443;-37
2024/01/13 09:34:09;;;;;;;19.80;18.20;;;;;;;3.99;100.00;101343.81;5010323;28;20495;-36
2024/01/13 09:36:40;;;;;;;19.73;18.30;;;;;;;4.01;100.00;101333.94;5025822;28;21011;-38
2024/01/13 09:39:10;;;;;;;20.00;18.47;;;;;;;3.99;100.00;101317.44;5016482;28;20881;-36
2024/01/13 09:41:39;;;;;;;18.87;17.70;;;;;;;4.02;100.00;101317.16;5020185;28;21008;-37
2024/01/13 09:44:13;;;;;;;19.77;18.47;;;;;;;4.07;100.00;101307.00;5014306;28;20440;-37
2024/01/13 09:46:42;;;;;;;20.17;18.47;;;;;;;4.12;100.00;101302.16;5013240;28;20513;-38
2024/01/13 09:49:12;;;;;;;20.00;18.70;;;;;;;4.14;100.00;101285.19;5020633;28;20553;-36
2024/01/13 09:51:42;;;;;;;19.40;17.93;;;;;;;4.16;100.00;101295.59;5017951;28;20447;-38
2024/01/13 09:54:12;;;;;;;18.60;17.30;;;;;;;4.20;100.00;101278.50;5009253;28;20955;-38
2024/01/13 09:56:44;;;;;;;19.17;17.67;;;;;;;4.26;100.00;101276.13;5009050;28;20437;-41
2024/01/13 09:59:13;;;;;;;18.97;17.07;;;;;;;4.25;100.00;101281.53;5009155;28;20556;-37
2024/01/13 10:01:42;;;;;;;19.37;18.17;;;;;;;4.24;100.00;101271.97;5012414;28;20571;-38
2024/01/13 10:04:11;;;;;;;19.63;17.90;;;;;;;4.31;100.00;101273.06;5025977;28;20440;-40
2024/01/13 10:06:40;;;;;;;18.27;17.07;;;;;;;4.34;100.00;101272.75;5010800;28;20725;-42
2024/01/13 10:09:08;;;;;;;19.87;18.37;;;;;;;4.36;100.00;101258.44;5009884;28;20474;-37
2024/01/13 10:11:56;;;;;;;17.77;16.70;;;;;;;4.43;100.00;101253.41;5006847;28;20857;-38
2024/01/13 10:14:24;;;;;;;17.80;16.70;;;;;;;4.43;100.00;101251.63;5018600;28;20979;-36
2024/01/13 10:16:53;;;;;;;18.13;16.60;;;;;;;4.48;100.00;101238.81;5010074;28;20444;-39
2024/01/13 10:19:24;;;;;;;17.77;16.50;;;;;;;4.48;100.00;101237.97;5009839;28;20465;-38
2024/01/13 10:21:56;;;;;;;17.47;16.57;;;;;;;4.48;100.00;101238.81;5014285;28;20437;-36
2024/01/13 10:24:24;;;;;;;17.23;16.33;;;;;;;4.55;100.00;101225.00;5009702;28;20441;-38
2024/01/13 10:26:52;;;;;;;18.40;17.23;;;;;;;4.54;100.00;101221.53;5009031;28;20442;-36
2024/01/13 10:29:20;;;;;;;17.07;16.27;;;;;;;4.53;100.00;101209.34;5008176;28;20476;-38
2024/01/13 10:31:50;;;;;;;17.40;16.33;;;;;;;4.58;100.00;101215.00;5003690;28;20499;-37
2024/01/13 10:34:20;;;;;;;17.67;16.43;;;;;;;4.63;100.00;101220.66;5017400;28;20448;-37
2024/01/13 10:36:48;;;;;;;17.63;16.63;;;;;;;4.63;100.00;101207.44;5014383;28;20440;-36
2024/01/13 10:39:16;;;;;;;17.87;16.77;;;;;;;4.65;100.00;101208.16;5013975;28;20527;-37
2024/01/13 10:41:45;;;;;;;17.97;17.00;;;;;;;4.64;100.00;101193.28;5009760;28;20528;-38
2024/01/13 10:44:17;;;;;;;17.60;16.60;;;;;;;4.66;100.00;101193.16;5015833;28;20820;-37
2024/01/13 10:46:50;;;;;;;18.37;17.17;;;;;;;4.67;100.00;101190.34;5009550;28;20441;-36
2024/01/13 10:49:28;;;;;;;17.40;16.40;;;;;;;4.67;100.00;101186.88;5016093;28;20456;-36
2024/01/13 10:51:58;;;;;;;17.10;16.20;;;;;;;4.62;100.00;101168.00;5018395;28;20510;-37
2024/01/13 10:54:29;;;;;;;17.40;16.70;;;;;;;4.62;100.00;101173.28;5011833;28;20453;-36
2024/01/13 10:56:57;;;;;;;18.83;17.57;;;;;;;4.63;100.00;101175.75;5017549;28;20524;-37
2024/01/13 10:59:28;;;;;;;18.90;17.27;;;;;;;4.62;100.00;101174.13;5022608;28;20468;-36
2024/01/13 11:01:57;;;;;;;19.70;17.83;;;;;;;4.63;100.00;101162.56;5013421;28;20804;-40
2024/01/13 11:04:28;;;;;;;17.60;16.60;;;;;;;4.69;100.00;101156.66;5012928;28;20445;-39
2024/01/13 11:06:56;;;;;;;18.10;16.80;;;;;;;4.79;100.00;101149.53;5027926;28;20811;-36
2024/01/13 11:09:26;;;;;;;18.07;16.70;;;;;;;4.88;100.00;101156.56;5012632;28;20461;-38
2024/01/13 11:12:13;;;;;;;17.07;16.00;;;;;;;4.96;100.00;101143.41;5006380;28;20440;-37
2024/01/13 11:14:52;;;;;;;19.90;17.87;;;;;;;5.03;100.00;101126.00;5012980;28;20484;-38
2024/01/13 11:17:21;;;;;;;17.20;16.27;;;;;;;5.09;100.00;101131.63;5012570;28;20433;-37
2024/01/13 11:19:50;;;;;;;18.43;16.93;;;;;;;5.12;100.00;101132.16;5020322;28;20523;-36